EIKN/NOC METAR and TAF weather

Enter ICAO airport designator
Station Type Date Time Source
EIKN METAR 2021/07/26 16:30 UTC NOAA

EIKN 261630Z 29006KT 9999 -RA SCT006 BKN020 16/15 Q1010 TEMPO 4000 SHRA


Station Type Date Time Source
EIKN Decoded METAR 2021/07/26 16:30 UTC NOAA

Connaught, Ireland (EIKN) 53-54-37N 008-49-05W
Jul 26, 2021 - 12:30 PM EDT / 2021.07.26 1630 UTC
Wind: from the WNW (290 degrees) at 7 MPH (6 KT):0
Visibility: greater than 7 mile(s):0
Sky conditions: mostly cloudy
Weather: light rain
Temperature: 60 F (16 C)
Dew Point: 59 F (15 C)
Relative Humidity: 93%
Pressure (altimeter): 29.83 in. Hg (1010 hPa)
ob: EIKN 261630Z 29006KT 9999 -RA SCT006 BKN020 16/15 Q1010 TEMPO 4000 SHRA
cycle: 16

Station Type Date Time Source
EIKN TAF 2021/07/26 12:39 UTC NOAA

TAF
AMD EIKN 261230Z 2612/2712 28005KT 9999 SCT010 BKN017
TEMPO 2612/2622 -SHRA BKN007 SCT017CB
TEMPO 2614/2621 3000 SHRA PROB30
TEMPO 2614/2621 BKN004
BECMG 2617/2619 33010KT
TEMPO 2622/2707 3000 -SHRA BR BKN005
BECMG 2700/2702 30010KT

Example: see airport list